GRI weather

Central Nebraska Regional Airport
Grand Island, Nebraska, United States

Public forecast

Using degrees Fahrenheit for public forecast. Weather courtesy of forecast.io.

Current aviation weather report (METAR) for Central Nebraska Regional Airport

Retrieved 2019/11/12 01:53 UTC (46 minutes ago):

KGRI 120153Z 31004KT 10SM CLR M12/M17 A3066 RMK AO2 SLP427 T11221167

Aviation forecast (TAF) for Central Nebraska Regional Airport

Retrieved 2019-11-12 00:22 UTC (2 hours ago):

TAF KGRI 112320Z 1200/1224 34011KT P6SM FEW025 FM120200 VRB05KT P6SM SKC FM121400 19010KT P6SM SKC FM121800 19018G28KT P6SM SKC